sensor_id;sensor_type;location;lat;lon;timestamp;pressure;altitude;pressure_sealevel;temperature;humidity
79707;BME280;69200;53.612;-2.416;2023-04-25T00:02:17;99969.63;;;2.79;66.03
79707;BME280;69200;53.612;-2.416;2023-04-25T00:04:43;99973.50;;;2.76;66.55
79707;BME280;69200;53.612;-2.416;2023-04-25T00:07:08;99979.81;;;2.69;66.68
79707;BME280;69200;53.612;-2.416;2023-04-25T00:09:34;99983.31;;;2.69;66.09
79707;BME280;69200;53.612;-2.416;2023-04-25T00:11:59;99983.78;;;2.73;66.15
79707;BME280;69200;53.612;-2.416;2023-04-25T00:14:26;99987.00;;;2.68;65.97
79707;BME280;69200;53.612;-2.416;2023-04-25T00:16:53;99984.13;;;2.70;66.52
79707;BME280;69200;53.612;-2.416;2023-04-25T00:19:19;99991.44;;;2.76;66.78
79707;BME280;69200;53.612;-2.416;2023-04-25T00:21:44;99986.53;;;2.79;65.99
79707;BME280;69200;53.612;-2.416;2023-04-25T00:24:12;99982.47;;;2.69;66.89
79707;BME280;69200;53.612;-2.416;2023-04-25T00:26:37;99986.72;;;2.48;67.41
79707;BME280;69200;53.612;-2.416;2023-04-25T00:29:03;99979.78;;;2.39;67.98
79707;BME280;69200;53.612;-2.416;2023-04-25T00:31:28;99971.75;;;2.24;68.34
79707;BME280;69200;53.612;-2.416;2023-04-25T00:33:54;99978.03;;;2.32;71.25
79707;BME280;69200;53.612;-2.416;2023-04-25T00:36:20;99966.97;;;2.35;69.07
79707;BME280;69200;53.612;-2.416;2023-04-25T00:38:45;99983.59;;;2.30;68.62
79707;BME280;69200;53.612;-2.416;2023-04-25T00:41:11;99981.75;;;2.31;70.29
79707;BME280;69200;53.612;-2.416;2023-04-25T00:43:37;99978.03;;;2.32;71.11
79707;BME280;69200;53.612;-2.416;2023-04-25T00:46:03;99984.31;;;2.24;70.33
79707;BME280;69200;53.612;-2.416;2023-04-25T00:48:28;99982.00;;;2.21;71.93
79707;BME280;69200;53.612;-2.416;2023-04-25T00:50:57;99985.94;;;1.95;73.14
79707;BME280;69200;53.612;-2.416;2023-04-25T00:53:24;99984.50;;;1.70;70.88
79707;BME280;69200;53.612;-2.416;2023-04-25T00:55:50;99971.34;;;1.60;71.52
79707;BME280;69200;53.612;-2.416;2023-04-25T00:58:19;99974.22;;;1.59;71.44
79707;BME280;69200;53.612;-2.416;2023-04-25T01:00:46;99961.50;;;1.61;73.43
79707;BME280;69200;53.612;-2.416;2023-04-25T01:03:12;99986.88;;;1.65;72.18
79707;BME280;69200;53.612;-2.416;2023-04-25T01:05:40;99989.16;;;1.53;72.72
79707;BME280;69200;53.612;-2.416;2023-04-25T01:08:06;99986.81;;;1.50;71.67
79707;BME280;69200;53.612;-2.416;2023-04-25T01:10:32;99975.09;;;1.28;72.56
79707;BME280;69200;53.612;-2.416;2023-04-25T01:12:57;99984.00;;;1.44;73.71
79707;BME280;69200;53.612;-2.416;2023-04-25T01:15:22;99982.66;;;1.48;73.62
79707;BME280;69200;53.612;-2.416;2023-04-25T01:17:48;99982.72;;;1.39;71.79
79707;BME280;69200;53.612;-2.416;2023-04-25T01:20:14;99986.28;;;1.55;72.31
79707;BME280;69200;53.612;-2.416;2023-04-25T01:22:41;99982.34;;;1.43;71.83
79707;BME280;69200;53.612;-2.416;2023-04-25T01:25:07;99989.78;;;1.32;72.36
79707;BME280;69200;53.612;-2.416;2023-04-25T01:27:33;99995.31;;;1.54;75.00
79707;BME280;69200;53.612;-2.416;2023-04-25T01:29:59;99988.44;;;1.36;73.34
79707;BME280;69200;53.612;-2.416;2023-04-25T01:32:25;99996.28;;;1.61;73.09
79707;BME280;69200;53.612;-2.416;2023-04-25T01:34:51;99991.69;;;1.70;72.30
79707;BME280;69200;53.612;-2.416;2023-04-25T01:37:17;99993.22;;;1.64;71.83
79707;BME280;69200;53.612;-2.416;2023-04-25T01:39:43;99987.81;;;1.49;73.19
79707;BME280;69200;53.612;-2.416;2023-04-25T01:42:09;99972.22;;;1.38;74.37
79707;BME280;69200;53.612;-2.416;2023-04-25T01:44:34;99985.56;;;1.38;73.42
79707;BME280;69200;53.612;-2.416;2023-04-25T01:47:00;99970.19;;;1.63;71.34
79707;BME280;69200;53.612;-2.416;2023-04-25T01:49:25;99972.97;;;1.47;72.94
79707;BME280;69200;53.612;-2.416;2023-04-25T01:51:51;99981.75;;;1.32;72.87
79707;BME280;69200;53.612;-2.416;2023-04-25T01:54:16;99994.16;;;1.25;73.38
79707;BME280;69200;53.612;-2.416;2023-04-25T01:56:43;99997.06;;;1.16;74.43
79707;BME280;69200;53.612;-2.416;2023-04-25T01:59:09;99999.19;;;1.20;73.07
79707;BME280;69200;53.612;-2.416;2023-04-25T02:01:34;99982.59;;;1.02;72.93
79707;BME280;69200;53.612;-2.416;2023-04-25T02:03:59;99989.56;;;1.11;74.20
79707;BME280;69200;53.612;-2.416;2023-04-25T02:06:25;99993.94;;;1.04;73.30
79707;BME280;69200;53.612;-2.416;2023-04-25T02:08:50;99999.38;;;1.19;74.82
79707;BME280;69200;53.612;-2.416;2023-04-25T02:11:16;99991.22;;;1.12;72.74
79707;BME280;69200;53.612;-2.416;2023-04-25T02:13:41;99994.22;;;1.17;75.67
79707;BME280;69200;53.612;-2.416;2023-04-25T02:16:07;99995.53;;;1.21;74.48
79707;BME280;69200;53.612;-2.416;2023-04-25T02:18:32;99995.53;;;1.21;77.27
79707;BME280;69200;53.612;-2.416;2023-04-25T02:20:59;99994.44;;;1.38;75.78
79707;BME280;69200;53.612;-2.416;2023-04-25T02:23:25;99986.59;;;1.37;73.75
79707;BME280;69200;53.612;-2.416;2023-04-25T02:25:50;99983.72;;;1.38;75.28
79707;BME280;69200;53.612;-2.416;2023-04-25T02:28:17;99983.72;;;1.38;74.94
79707;BME280;69200;53.612;-2.416;2023-04-25T02:30:42;99982.47;;;1.26;73.08
79707;BME280;69200;53.612;-2.416;2023-04-25T02:33:07;99992.13;;;1.27;75.00
79707;BME280;69200;53.612;-2.416;2023-04-25T02:35:33;99991.88;;;1.45;73.75
79707;BME280;69200;53.612;-2.416;2023-04-25T02:37:58;99997.75;;;1.40;73.32
79707;BME280;69200;53.612;-2.416;2023-04-25T02:40:24;99993.88;;;1.43;73.17
79707;BME280;69200;53.612;-2.416;2023-04-25T02:42:49;100000.66;;;1.54;72.07
79707;BME280;69200;53.612;-2.416;2023-04-25T02:45:14;99994.06;;;1.64;73.06
79707;BME280;69200;53.612;-2.416;2023-04-25T02:47:40;99998.06;;;1.68;72.88
79707;BME280;69200;53.612;-2.416;2023-04-25T02:50:06;99987.38;;;1.83;73.78
79707;BME280;69200;53.612;-2.416;2023-04-25T02:52:31;99994.31;;;1.92;72.56
79707;BME280;69200;53.612;-2.416;2023-04-25T02:54:57;99999.03;;;1.90;73.33
79707;BME280;69200;53.612;-2.416;2023-04-25T02:57:22;99976.75;;;1.75;73.80
79707;BME280;69200;53.612;-2.416;2023-04-25T02:59:47;100005.19;;;1.91;73.72
79707;BME280;69200;53.612;-2.416;2023-04-25T03:02:13;100003.63;;;1.82;73.09
79707;BME280;69200;53.612;-2.416;2023-04-25T03:04:38;99988.06;;;1.62;75.80
79707;BME280;69200;53.612;-2.416;2023-04-25T03:07:04;99988.31;;;1.53;74.11
79707;BME280;69200;53.612;-2.416;2023-04-25T03:09:29;100001.63;;;1.61;73.65
79707;BME280;69200;53.612;-2.416;2023-04-25T03:11:55;99996.38;;;1.67;73.97
79707;BME280;69200;53.612;-2.416;2023-04-25T03:14:20;100004.94;;;1.63;75.16
79707;BME280;69200;53.612;-2.416;2023-04-25T03:16:45;100005.41;;;1.44;76.28
79707;BME280;69200;53.612;-2.416;2023-04-25T03:19:11;100005.56;;;1.19;72.99
79707;BME280;69200;53.612;-2.416;2023-04-25T03:21:36;100013.25;;;1.22;76.17
79707;BME280;69200;53.612;-2.416;2023-04-25T03:24:03;100007.34;;;0.96;74.10
79707;BME280;69200;53.612;-2.416;2023-04-25T03:26:29;100002.88;;;0.49;75.11
79707;BME280;69200;53.612;-2.416;2023-04-25T03:28:54;100006.06;;;0.44;75.89
79707;BME280;69200;53.612;-2.416;2023-04-25T03:31:20;100013.31;;;0.67;79.59
79707;BME280;69200;53.612;-2.416;2023-04-25T03:33:46;100013.25;;;0.83;78.46
79707;BME280;69200;53.612;-2.416;2023-04-25T03:36:11;100011.72;;;0.97;78.71
79707;BME280;69200;53.612;-2.416;2023-04-25T03:38:36;100011.47;;;0.75;76.58
79707;BME280;69200;53.612;-2.416;2023-04-25T03:41:02;100014.78;;;0.77;78.70
79707;BME280;69200;53.612;-2.416;2023-04-25T03:43:27;100020.25;;;0.84;78.08
79707;BME280;69200;53.612;-2.416;2023-04-25T03:45:53;100018.75;;;0.90;75.81
79707;BME280;69200;53.612;-2.416;2023-04-25T03:48:19;100023.72;;;0.93;73.88
79707;BME280;69200;53.612;-2.416;2023-04-25T03:50:47;100016.00;;;1.06;74.00
79707;BME280;69200;53.612;-2.416;2023-04-25T03:53:12;100018.47;;;1.38;73.43
79707;BME280;69200;53.612;-2.416;2023-04-25T03:55:37;100021.84;;;1.32;72.23
79707;BME280;69200;53.612;-2.416;2023-04-25T03:58:03;100023.50;;;1.02;72.83
79707;BME280;69200;53.612;-2.416;2023-04-25T04:00:28;100029.41;;;0.98;77.28
79707;BME280;69200;53.612;-2.416;2023-04-25T04:02:53;100028.03;;;1.02;76.83
79707;BME280;69200;53.612;-2.416;2023-04-25T04:05:19;100025.91;;;0.97;77.66
79707;BME280;69200;53.612;-2.416;2023-04-25T04:07:44;100029.63;;;0.80;75.36
79707;BME280;69200;53.612;-2.416;2023-04-25T04:10:10;100025.34;;;0.63;76.68
79707;BME280;69200;53.612;-2.416;2023-04-25T04:12:36;100032.53;;;0.62;78.06
79707;BME280;69200;53.612;-2.416;2023-04-25T04:15:05;100024.47;;;0.70;77.53
79707;BME280;69200;53.612;-2.416;2023-04-25T04:17:31;100024.78;;;0.83;77.22
79707;BME280;69200;53.612;-2.416;2023-04-25T04:19:56;100026.63;;;0.83;78.95
79707;BME280;69200;53.612;-2.416;2023-04-25T04:22:22;100032.84;;;0.67;76.95
79707;BME280;69200;53.612;-2.416;2023-04-25T04:24:48;100032.22;;;0.57;75.80
79707;BME280;69200;53.612;-2.416;2023-04-25T04:27:15;100034.19;;;0.63;76.98
79707;BME280;69200;53.612;-2.416;2023-04-25T04:29:42;100031.22;;;0.58;75.77
79707;BME280;69200;53.612;-2.416;2023-04-25T04:32:08;100044.88;;;0.63;76.86
79707;BME280;69200;53.612;-2.416;2023-04-25T04:34:34;100040.91;;;0.51;75.89
79707;BME280;69200;53.612;-2.416;2023-04-25T04:37:00;100042.69;;;0.67;75.90
79707;BME280;69200;53.612;-2.416;2023-04-25T04:39:25;100046.50;;;0.80;75.55
79707;BME280;69200;53.612;-2.416;2023-04-25T04:41:51;100044.88;;;1.02;72.83
79707;BME280;69200;53.612;-2.416;2023-04-25T04:44:16;100046.06;;;1.00;72.86
79707;BME280;69200;53.612;-2.416;2023-04-25T04:46:41;100037.06;;;1.01;75.15
79707;BME280;69200;53.612;-2.416;2023-04-25T04:49:11;100042.25;;;0.94;74.58
79707;BME280;69200;53.612;-2.416;2023-04-25T04:51:37;100037.59;;;0.88;76.23
79707;BME280;69200;53.612;-2.416;2023-04-25T04:54:03;100044.13;;;0.86;77.85
79707;BME280;69200;53.612;-2.416;2023-04-25T04:56:30;100045.63;;;0.80;75.52
79707;BME280;69200;53.612;-2.416;2023-04-25T04:58:58;100043.97;;;0.79;75.35
79707;BME280;69200;53.612;-2.416;2023-04-25T05:01:25;100046.78;;;0.86;75.57
79707;BME280;69200;53.612;-2.416;2023-04-25T05:03:51;100052.06;;;1.02;72.93
79707;BME280;69200;53.612;-2.416;2023-04-25T05:06:18;100051.72;;;1.36;70.89
79707;BME280;69200;53.612;-2.416;2023-04-25T05:08:43;100045.25;;;1.61;69.78
79707;BME280;69200;53.612;-2.416;2023-04-25T05:11:09;100062.22;;;1.91;67.37
79707;BME280;69200;53.612;-2.416;2023-04-25T05:13:35;100073.69;;;2.38;65.84
79707;BME280;69200;53.612;-2.416;2023-04-25T05:16:00;100074.59;;;2.83;64.48
79707;BME280;69200;53.612;-2.416;2023-04-25T05:18:25;100065.13;;;3.16;62.66
79707;BME280;69200;53.612;-2.416;2023-04-25T05:20:51;100064.59;;;3.57;61.51
79707;BME280;69200;53.612;-2.416;2023-04-25T05:23:16;100059.34;;;3.91;60.46
79707;BME280;69200;53.612;-2.416;2023-04-25T05:25:42;100059.56;;;4.11;59.47
79707;BME280;69200;53.612;-2.416;2023-04-25T05:28:07;100058.88;;;4.31;59.28
79707;BME280;69200;53.612;-2.416;2023-04-25T05:30:34;100059.31;;;4.97;58.63
79707;BME280;69200;53.612;-2.416;2023-04-25T05:32:59;100057.81;;;5.29;55.68
79707;BME280;69200;53.612;-2.416;2023-04-25T05:35:25;100069.31;;;5.64;55.14
79707;BME280;69200;53.612;-2.416;2023-04-25T05:37:51;100073.16;;;6.09;53.34
79707;BME280;69200;53.612;-2.416;2023-04-25T05:40:16;100071.72;;;6.40;52.30
79707;BME280;69200;53.612;-2.416;2023-04-25T05:42:41;100072.34;;;6.68;52.81
79707;BME280;69200;53.612;-2.416;2023-04-25T05:45:07;100082.91;;;6.63;54.00
79707;BME280;69200;53.612;-2.416;2023-04-25T05:47:32;100072.97;;;7.35;51.93
79707;BME280;69200;53.612;-2.416;2023-04-25T05:49:58;100077.44;;;7.93;50.74
79707;BME280;69200;53.612;-2.416;2023-04-25T05:52:23;100077.16;;;7.31;51.72
79707;BME280;69200;53.612;-2.416;2023-04-25T05:54:48;100080.63;;;8.14;48.68
79707;BME280;69200;53.612;-2.416;2023-04-25T05:57:24;100074.03;;;9.59;45.89
79707;BME280;69200;53.612;-2.416;2023-04-25T05:59:50;100089.44;;;10.18;44.44
79707;BME280;69200;53.612;-2.416;2023-04-25T06:02:17;100079.97;;;10.39;43.52
79707;BME280;69200;53.612;-2.416;2023-04-25T06:04:42;100080.47;;;10.18;44.48
79707;BME280;69200;53.612;-2.416;2023-04-25T06:07:07;100076.69;;;10.07;43.76
79707;BME280;69200;53.612;-2.416;2023-04-25T06:09:33;100084.00;;;10.18;43.98
79707;BME280;69200;53.612;-2.416;2023-04-25T06:11:59;100079.47;;;10.30;43.08
79707;BME280;69200;53.612;-2.416;2023-04-25T06:14:25;100084.59;;;10.62;43.73
79707;BME280;69200;53.612;-2.416;2023-04-25T06:16:50;100077.56;;;10.19;44.46
79707;BME280;69200;53.612;-2.416;2023-04-25T06:19:15;100070.78;;;10.52;42.98
79707;BME280;69200;53.612;-2.416;2023-04-25T06:21:43;100075.28;;;11.57;41.77
79707;BME280;69200;53.612;-2.416;2023-04-25T06:24:09;100079.78;;;10.99;42.65
79707;BME280;69200;53.612;-2.416;2023-04-25T06:26:34;100082.00;;;10.44;42.27
79707;BME280;69200;53.612;-2.416;2023-04-25T06:29:00;100091.66;;;11.21;42.84
79707;BME280;69200;53.612;-2.416;2023-04-25T06:31:25;100096.47;;;11.83;40.88
79707;BME280;69200;53.612;-2.416;2023-04-25T06:33:51;100095.03;;;11.92;40.79
79707;BME280;69200;53.612;-2.416;2023-04-25T06:36:20;100088.38;;;12.17;39.93
79707;BME280;69200;53.612;-2.416;2023-04-25T06:38:50;100089.31;;;11.54;39.71
79707;BME280;69200;53.612;-2.416;2023-04-25T06:41:15;100095.59;;;11.54;40.05
79707;BME280;69200;53.612;-2.416;2023-04-25T06:43:41;100094.34;;;11.33;41.10
79707;BME280;69200;53.612;-2.416;2023-04-25T06:46:06;100088.34;;;12.62;38.14
79707;BME280;69200;53.612;-2.416;2023-04-25T06:48:31;100095.69;;;11.99;38.06
79707;BME280;69200;53.612;-2.416;2023-04-25T06:50:57;100095.59;;;11.94;38.10
79707;BME280;69200;53.612;-2.416;2023-04-25T06:53:22;100095.44;;;11.20;38.85
79707;BME280;69200;53.612;-2.416;2023-04-25T06:55:47;100099.19;;;10.38;41.04
79707;BME280;69200;53.612;-2.416;2023-04-25T06:58:13;100106.25;;;10.39;41.03
79707;BME280;69200;53.612;-2.416;2023-04-25T07:00:38;100110.31;;;10.59;40.84
79707;BME280;69200;53.612;-2.416;2023-04-25T07:03:04;100111.84;;;11.14;40.08
79707;BME280;69200;53.612;-2.416;2023-04-25T07:05:29;100113.00;;;11.41;37.51
79707;BME280;69200;53.612;-2.416;2023-04-25T07:07:54;100117.53;;;11.12;39.00
79707;BME280;69200;53.612;-2.416;2023-04-25T07:10:20;100117.53;;;10.24;40.84
79707;BME280;69200;53.612;-2.416;2023-04-25T07:12:46;100116.63;;;10.42;40.69
79707;BME280;69200;53.612;-2.416;2023-04-25T07:15:11;100118.22;;;10.61;39.41
79707;BME280;69200;53.612;-2.416;2023-04-25T07:17:37;100121.59;;;9.36;40.56
79707;BME280;69200;53.612;-2.416;2023-04-25T07:20:04;100125.47;;;9.77;40.62
79707;BME280;69200;53.612;-2.416;2023-04-25T07:22:29;100131.28;;;10.11;39.67
79707;BME280;69200;53.612;-2.416;2023-04-25T07:24:55;100123.41;;;10.62;39.50
79707;BME280;69200;53.612;-2.416;2023-04-25T07:27:20;100125.22;;;9.97;39.29
79707;BME280;69200;53.612;-2.416;2023-04-25T07:29:45;100127.38;;;10.48;37.88
79707;BME280;69200;53.612;-2.416;2023-04-25T07:32:11;100127.34;;;9.76;38.51
79707;BME280;69200;53.612;-2.416;2023-04-25T07:34:38;100131.44;;;9.67;39.43
79707;BME280;69200;53.612;-2.416;2023-04-25T07:37:04;100124.81;;;10.65;36.94
79707;BME280;69200;53.612;-2.416;2023-04-25T07:39:30;100135.72;;;10.23;36.61
79707;BME280;69200;53.612;-2.416;2023-04-25T07:41:55;100132.56;;;10.38;36.70
79707;BME280;69200;53.612;-2.416;2023-04-25T07:44:23;100139.63;;;10.92;37.71
79707;BME280;69200;53.612;-2.416;2023-04-25T07:46:49;100137.53;;;11.46;36.23
79707;BME280;69200;53.612;-2.416;2023-04-25T07:49:14;100133.97;;;10.41;36.53
79707;BME280;69200;53.612;-2.416;2023-04-25T07:51:40;100139.44;;;9.92;38.50
79707;BME280;69200;53.612;-2.416;2023-04-25T07:54:06;100133.47;;;10.97;36.92
79707;BME280;69200;53.612;-2.416;2023-04-25T07:56:32;100140.78;;;11.20;36.70
79707;BME280;69200;53.612;-2.416;2023-04-25T07:58:57;100148.22;;;10.89;37.32
79707;BME280;69200;53.612;-2.416;2023-04-25T08:01:23;100146.91;;;11.27;35.49
79707;BME280;69200;53.612;-2.416;2023-04-25T08:03:49;100145.03;;;10.92;32.84
79707;BME280;69200;53.612;-2.416;2023-04-25T08:06:14;100145.78;;;10.46;34.11
79707;BME280;69200;53.612;-2.416;2023-04-25T08:08:40;100150.72;;;10.38;34.62
79707;BME280;69200;53.612;-2.416;2023-04-25T08:11:05;100150.88;;;9.94;35.30
79707;BME280;69200;53.612;-2.416;2023-04-25T08:13:31;100145.25;;;9.96;35.91
79707;BME280;69200;53.612;-2.416;2023-04-25T08:15:56;100144.22;;;9.78;37.13
79707;BME280;69200;53.612;-2.416;2023-04-25T08:18:21;100153.19;;;10.27;38.43
79707;BME280;69200;53.612;-2.416;2023-04-25T08:20:47;100153.47;;;10.19;36.68
79707;BME280;69200;53.612;-2.416;2023-04-25T08:23:12;100149.38;;;9.98;35.71
79707;BME280;69200;53.612;-2.416;2023-04-25T08:25:38;100151.69;;;9.46;35.43
79707;BME280;69200;53.612;-2.416;2023-04-25T08:28:03;100150.25;;;8.82;36.36
79707;BME280;69200;53.612;-2.416;2023-04-25T08:30:29;100152.41;;;8.42;37.93
79707;BME280;69200;53.612;-2.416;2023-04-25T08:32:55;100159.25;;;8.51;37.61
79707;BME280;69200;53.612;-2.416;2023-04-25T08:35:20;100160.59;;;9.10;37.46
79707;BME280;69200;53.612;-2.416;2023-04-25T08:37:45;100159.16;;;7.95;38.43
79707;BME280;69200;53.612;-2.416;2023-04-25T08:40:12;100163.47;;;8.34;39.36
79707;BME280;69200;53.612;-2.416;2023-04-25T08:42:41;100162.03;;;8.38;39.47
79707;BME280;69200;53.612;-2.416;2023-04-25T08:45:07;100167.22;;;8.39;40.39
79707;BME280;69200;53.612;-2.416;2023-04-25T08:47:33;100163.31;;;8.35;40.50
79707;BME280;69200;53.612;-2.416;2023-04-25T08:50:00;100164.16;;;8.86;38.52
79707;BME280;69200;53.612;-2.416;2023-04-25T08:52:28;100170.53;;;8.41;39.14
79707;BME280;69200;53.612;-2.416;2023-04-25T08:54:56;100176.66;;;9.05;38.18
79707;BME280;69200;53.612;-2.416;2023-04-25T08:57:23;100178.50;;;8.86;38.65
79707;BME280;69200;53.612;-2.416;2023-04-25T08:59:48;100171.03;;;7.87;40.24
79707;BME280;69200;53.612;-2.416;2023-04-25T09:02:14;100184.69;;;7.92;39.96
79707;BME280;69200;53.612;-2.416;2023-04-25T09:04:43;100177.31;;;7.68;39.93
79707;BME280;69200;53.612;-2.416;2023-04-25T09:07:09;100172.63;;;8.39;40.50
79707;BME280;69200;53.612;-2.416;2023-04-25T09:09:35;100186.81;;;8.35;40.47
79707;BME280;69200;53.612;-2.416;2023-04-25T09:12:01;100184.13;;;8.60;41.32
79707;BME280;69200;53.612;-2.416;2023-04-25T09:14:27;100186.44;;;9.31;38.76
79707;BME280;69200;53.612;-2.416;2023-04-25T09:19:39;100188.66;;;8.34;38.49
79707;BME280;69200;53.612;-2.416;2023-04-25T09:22:06;100177.31;;;8.19;39.49
79707;BME280;69200;53.612;-2.416;2023-04-25T09:24:42;100188.38;;;9.24;40.13
79707;BME280;69200;53.612;-2.416;2023-04-25T09:27:13;100188.28;;;9.12;39.02
79707;BME280;69200;53.612;-2.416;2023-04-25T09:29:42;100189.69;;;9.58;40.15
79707;BME280;69200;53.612;-2.416;2023-04-25T09:32:26;100182.16;;;9.60;39.90
79707;BME280;69200;53.612;-2.416;2023-04-25T09:34:56;100168.69;;;9.72;40.53
79707;BME280;69200;53.612;-2.416;2023-04-25T09:37:29;100183.72;;;9.86;38.92
79707;BME280;69200;53.612;-2.416;2023-04-25T09:39:57;100174.84;;;9.61;39.48
79707;BME280;69200;53.612;-2.416;2023-04-25T09:42:25;100185.47;;;8.51;40.86
79707;BME280;69200;53.612;-2.416;2023-04-25T09:44:56;100179.88;;;8.71;42.03
79707;BME280;69200;53.612;-2.416;2023-04-25T09:47:23;100178.16;;;8.13;42.44
79707;BME280;69200;53.612;-2.416;2023-04-25T09:49:50;100178.59;;;8.48;42.38
79707;BME280;69200;53.612;-2.416;2023-04-25T09:52:19;100175.88;;;8.48;42.49
79707;BME280;69200;53.612;-2.416;2023-04-25T09:54:46;100176.41;;;8.88;41.41
79707;BME280;69200;53.612;-2.416;2023-04-25T09:57:17;100175.72;;;8.75;41.85
79707;BME280;69200;53.612;-2.416;2023-04-25T10:00:01;100181.03;;;9.31;40.87
79707;BME280;69200;53.612;-2.416;2023-04-25T10:02:31;100183.72;;;9.86;40.04
79707;BME280;69200;53.612;-2.416;2023-04-25T10:04:58;100177.91;;;10.01;39.02
79707;BME280;69200;53.612;-2.416;2023-04-25T10:07:29;100169.50;;;10.21;38.59
79707;BME280;69200;53.612;-2.416;2023-04-25T10:09:59;100184.41;;;9.81;36.13
79707;BME280;69200;53.612;-2.416;2023-04-25T10:12:26;100178.22;;;9.19;38.66
79707;BME280;69200;53.612;-2.416;2023-04-25T10:14:52;100181.78;;;9.57;38.05
79707;BME280;69200;53.612;-2.416;2023-04-25T10:17:19;100179.19;;;9.98;37.91
79707;BME280;69200;53.612;-2.416;2023-04-25T10:19:46;100195.06;;;10.13;37.04
79707;BME280;69200;53.612;-2.416;2023-04-25T10:22:30;100180.31;;;10.27;36.90
79707;BME280;69200;53.612;-2.416;2023-04-25T10:24:58;100172.97;;;9.79;37.06
79707;BME280;69200;53.612;-2.416;2023-04-25T10:27:23;100167.84;;;10.50;39.02
79707;BME280;69200;53.612;-2.416;2023-04-25T10:30:08;100179.13;;;10.88;37.27
79707;BME280;69200;53.612;-2.416;2023-04-25T10:32:36;100181.31;;;10.45;37.04
79707;BME280;69200;53.612;-2.416;2023-04-25T10:35:26;100176.84;;;10.02;38.10
79707;BME280;69200;53.612;-2.416;2023-04-25T10:38:11;100186.97;;;9.95;38.49
79707;BME280;69200;53.612;-2.416;2023-04-25T10:40:38;100186.22;;;9.69;38.43
79707;BME280;69200;53.612;-2.416;2023-04-25T10:45:59;100180.44;;;9.04;39.79
79707;BME280;69200;53.612;-2.416;2023-04-25T10:48:26;100180.66;;;8.53;40.19
79707;BME280;69200;53.612;-2.416;2023-04-25T10:51:11;100169.41;;;8.81;40.62
79707;BME280;69200;53.612;-2.416;2023-04-25T10:53:37;100182.00;;;9.37;39.62
79707;BME280;69200;53.612;-2.416;2023-04-25T10:56:41;100175.22;;;9.46;39.03
79707;BME280;69200;53.612;-2.416;2023-04-25T10:59:16;100171.38;;;9.35;38.44
79707;BME280;69200;53.612;-2.416;2023-04-25T11:01:47;100164.63;;;9.26;39.12
79707;BME280;69200;53.612;-2.416;2023-04-25T11:04:24;100177.50;;;9.31;39.56
79707;BME280;69200;53.612;-2.416;2023-04-25T11:09:15;100172.75;;;8.51;41.01
79707;BME280;69200;53.612;-2.416;2023-04-25T11:11:40;100182.53;;;8.52;41.18
79707;BME280;69200;53.612;-2.416;2023-04-25T11:14:06;100171.16;;;9.18;39.00
79707;BME280;69200;53.612;-2.416;2023-04-25T11:16:31;100178.41;;;9.00;38.71
79707;BME280;69200;53.612;-2.416;2023-04-25T11:18:58;100165.94;;;9.90;37.49
79707;BME280;69200;53.612;-2.416;2023-04-25T11:21:25;100158.28;;;10.17;36.51
79707;BME280;69200;53.612;-2.416;2023-04-25T11:23:53;100158.16;;;10.12;37.01
79707;BME280;69200;53.612;-2.416;2023-04-25T11:26:19;100157.03;;;10.01;37.97
79707;BME280;69200;53.612;-2.416;2023-04-25T11:28:45;100142.41;;;9.54;38.70
79707;BME280;69200;53.612;-2.416;2023-04-25T11:31:12;100155.34;;;9.89;37.09
79707;BME280;69200;53.612;-2.416;2023-04-25T11:33:37;100160.78;;;9.89;36.46
79707;BME280;69200;53.612;-2.416;2023-04-25T11:36:03;100153.63;;;10.24;36.95
79707;BME280;69200;53.612;-2.416;2023-04-25T11:38:28;100151.56;;;10.50;36.68
79707;BME280;69200;53.612;-2.416;2023-04-25T11:40:54;100147.16;;;10.07;37.34
79707;BME280;69200;53.612;-2.416;2023-04-25T11:43:23;100139.72;;;9.72;36.65
79707;BME280;69200;53.612;-2.416;2023-04-25T11:45:49;100144.66;;;9.75;36.73
79707;BME280;69200;53.612;-2.416;2023-04-25T11:48:15;100142.72;;;9.64;38.00
79707;BME280;69200;53.612;-2.416;2023-04-25T11:50:41;100142.41;;;9.17;38.46
79707;BME280;69200;53.612;-2.416;2023-04-25T11:53:07;100148.06;;;9.34;39.30
79707;BME280;69200;53.612;-2.416;2023-04-25T11:55:34;100145.66;;;9.81;38.98
79707;BME280;69200;53.612;-2.416;2023-04-25T11:58:00;100142.97;;;10.11;38.80
79707;BME280;69200;53.612;-2.416;2023-04-25T12:00:26;100140.31;;;10.34;38.32
79707;BME280;69200;53.612;-2.416;2023-04-25T12:02:53;100145.06;;;10.39;38.46
79707;BME280;69200;53.612;-2.416;2023-04-25T12:05:20;100134.94;;;10.16;38.38
79707;BME280;69200;53.612;-2.416;2023-04-25T12:07:48;100143.31;;;10.45;38.97
79707;BME280;69200;53.612;-2.416;2023-04-25T12:10:15;100138.41;;;10.88;38.58
79707;BME280;69200;53.612;-2.416;2023-04-25T12:12:43;100135.53;;;10.18;37.93
79707;BME280;69200;53.612;-2.416;2023-04-25T12:15:15;100150.88;;;9.94;38.33
79707;BME280;69200;53.612;-2.416;2023-04-25T12:17:48;100140.34;;;9.86;37.49
79707;BME280;69200;53.612;-2.416;2023-04-25T12:20:15;100138.00;;;10.38;38.99
79707;BME280;69200;53.612;-2.416;2023-04-25T12:22:44;100138.63;;;10.52;35.96
79707;BME280;69200;53.612;-2.416;2023-04-25T12:25:13;100143.78;;;10.12;36.56
79707;BME280;69200;53.612;-2.416;2023-04-25T12:27:39;100150.63;;;10.14;35.50
79707;BME280;69200;53.612;-2.416;2023-04-25T12:30:07;100137.91;;;10.45;36.80
79707;BME280;69200;53.612;-2.416;2023-04-25T12:32:33;100131.41;;;10.57;35.43
79707;BME280;69200;53.612;-2.416;2023-04-25T12:34:59;100136.19;;;11.09;33.65
79707;BME280;69200;53.612;-2.416;2023-04-25T12:37:24;100153.66;;;11.13;31.79
79707;BME280;69200;53.612;-2.416;2023-04-25T12:39:49;100134.09;;;11.63;34.04
79707;BME280;69200;53.612;-2.416;2023-04-25T12:42:15;100131.47;;;11.80;33.35
79707;BME280;69200;53.612;-2.416;2023-04-25T12:44:41;100131.75;;;12.07;33.26
79707;BME280;69200;53.612;-2.416;2023-04-25T12:47:06;100130.41;;;12.54;32.77
79707;BME280;69200;53.612;-2.416;2023-04-25T12:49:32;100131.19;;;12.21;31.58
79707;BME280;69200;53.612;-2.416;2023-04-25T12:51:58;100134.28;;;11.96;32.81
79707;BME280;69200;53.612;-2.416;2023-04-25T12:54:23;100137.63;;;11.75;34.57
79707;BME280;69200;53.612;-2.416;2023-04-25T12:56:49;100141.56;;;11.44;34.83